createdAt,value
2019-01-10T00:00:44.345Z,207.33
2019-01-10T00:03:14.515Z,203.88
2019-01-10T00:05:44.151Z,199.50
2019-01-10T00:08:13.663Z,211.00
2019-01-10T00:10:43.080Z,207.33
2019-01-10T00:13:12.788Z,202.27
2019-01-10T00:15:42.180Z,203.77
2019-01-10T00:18:11.603Z,203.63
2019-01-10T00:20:41.118Z,196.87
2019-01-10T00:23:10.416Z,202.90
2019-01-10T00:25:39.839Z,200.67
2019-01-10T00:28:09.181Z,202.23
2019-01-10T00:30:38.599Z,194.80
2019-01-10T00:33:08.018Z,199.07
2019-01-10T00:35:37.503Z,195.67
2019-01-10T00:38:06.908Z,188.23
2019-01-10T00:40:36.310Z,193.27
2019-01-10T00:43:05.723Z,199.97
2019-01-10T00:45:35.067Z,194.00
2019-01-10T00:48:04.518Z,186.77
2019-01-10T00:50:33.907Z,196.43
2019-01-10T00:53:03.934Z,191.45
2019-01-10T00:55:33.336Z,184.10
2019-01-10T00:58:02.740Z,179.57
2019-01-10T01:00:33.058Z,185.80
2019-01-10T01:03:02.345Z,185.03
2019-01-10T01:05:31.728Z,176.80
2019-01-10T01:08:01.040Z,183.03
2019-01-10T01:10:30.448Z,182.27
2019-01-10T01:12:59.899Z,178.63
2019-01-10T01:15:29.204Z,183.27
2019-01-10T01:17:58.639Z,184.97
2019-01-10T01:20:28.035Z,184.63
2019-01-10T01:22:57.347Z,185.73
2019-01-10T01:25:26.856Z,180.47
2019-01-10T01:27:56.365Z,180.40
2019-01-10T01:30:26.207Z,181.53
2019-01-10T01:32:55.634Z,173.70
2019-01-10T01:35:25.070Z,173.87
2019-01-10T01:37:54.716Z,171.50
2019-01-10T01:40:24.124Z,180.73
2019-01-10T01:42:54.031Z,172.67
2019-01-10T01:45:23.454Z,175.00
2019-01-10T01:47:52.943Z,174.97
2019-01-10T01:50:24.111Z,182.77
2019-01-10T01:52:53.765Z,170.83
2019-01-10T01:55:23.196Z,174.00
2019-01-10T01:57:52.543Z,166.97
2019-01-10T02:00:23.307Z,168.40
2019-01-10T02:02:52.715Z,159.10
2019-01-10T02:05:22.175Z,165.37
2019-01-10T02:07:51.620Z,164.00
2019-01-10T02:10:26.113Z,166.00
2019-01-10T02:12:55.561Z,175.00
2019-01-10T02:15:24.892Z,172.80
2019-01-10T02:17:54.404Z,173.20
2019-01-10T02:20:23.879Z,179.97
2019-01-10T02:22:53.452Z,185.63
2019-01-10T02:25:23.839Z,180.63
2019-01-10T02:27:53.222Z,201.23
2019-01-10T02:30:23.623Z,189.20
2019-01-10T02:32:53.056Z,190.30
2019-01-10T02:35:22.472Z,205.83
2019-01-10T02:37:51.914Z,204.63
2019-01-10T02:40:21.376Z,201.00
2019-01-10T02:42:50.778Z,205.13
2019-01-10T02:45:20.345Z,196.60
2019-01-10T02:47:49.780Z,193.30
2019-01-10T02:50:22.196Z,188.50
2019-01-10T02:52:51.626Z,193.83
2019-01-10T02:55:21.003Z,186.50
2019-01-10T02:57:50.558Z,180.43
2019-01-10T03:00:22.080Z,189.60
2019-01-10T03:02:51.383Z,175.53
2019-01-10T03:05:20.904Z,181.37
2019-01-10T03:07:50.564Z,191.77
2019-01-10T03:10:22.846Z,173.90
2019-01-10T03:12:52.336Z,183.37
2019-01-10T03:15:21.741Z,187.00
2019-01-10T03:17:51.223Z,185.97
2019-01-10T03:20:22.248Z,183.37
2019-01-10T03:22:51.764Z,187.03
2019-01-10T03:25:21.079Z,179.47
2019-01-10T03:27:50.476Z,176.90
2019-01-10T03:30:20.420Z,170.03
2019-01-10T03:32:49.821Z,177.50
2019-01-10T03:35:19.223Z,177.47
2019-01-10T03:37:48.562Z,176.13
2019-01-10T03:40:19.799Z,169.50
2019-01-10T03:42:49.099Z,169.03
2019-01-10T03:45:19.811Z,171.23
2019-01-10T03:47:49.223Z,170.93
2019-01-10T03:50:18.706Z,175.40
2019-01-10T03:52:48.090Z,174.47
2019-01-10T03:55:17.450Z,177.80
2019-01-10T03:57:46.834Z,173.87
2019-01-10T04:00:21.374Z,178.23
2019-01-10T04:02:51.683Z,171.80
2019-01-10T04:05:21.101Z,181.33
2019-01-10T04:07:50.458Z,184.27
2019-01-10T04:10:19.763Z,179.07
2019-01-10T04:12:49.172Z,184.90
2019-01-10T04:15:18.563Z,179.33
2019-01-10T04:17:47.896Z,181.97
2019-01-10T04:20:18.089Z,189.27
2019-01-10T04:22:47.455Z,187.70
2019-01-10T04:25:17.043Z,183.03
2019-01-10T04:27:46.439Z,193.70
2019-01-10T04:30:17.960Z,176.78
2019-01-10T04:32:47.389Z,190.13
2019-01-10T04:35:16.771Z,182.03
2019-01-10T04:37:46.584Z,180.53
2019-01-10T04:40:17.932Z,173.03
2019-01-10T04:42:47.304Z,187.93
2019-01-10T04:45:16.772Z,184.33
2019-01-10T04:47:46.228Z,166.13
2019-01-10T04:50:15.699Z,177.90
2019-01-10T04:52:45.219Z,176.20
2019-01-10T04:55:14.647Z,169.17
2019-01-10T04:57:44.122Z,175.97
2019-01-10T05:00:16.929Z,171.83
2019-01-10T05:02:46.824Z,163.95
2019-01-10T05:05:16.705Z,174.90
2019-01-10T05:07:46.113Z,174.07
2019-01-10T05:10:15.590Z,168.77
2019-01-10T05:12:44.991Z,167.93
2019-01-10T05:15:15.943Z,173.87
2019-01-10T05:17:45.370Z,181.23
2019-01-10T05:20:17.423Z,176.93
2019-01-10T05:22:47.551Z,176.42
2019-01-10T05:25:16.961Z,181.40
2019-01-10T05:27:46.288Z,174.40
2019-01-10T05:30:18.485Z,190.47
2019-01-10T05:32:49.502Z,179.90
2019-01-10T05:35:18.928Z,182.47
2019-01-10T05:37:48.235Z,181.87
2019-01-10T05:40:17.533Z,187.03
2019-01-10T05:42:46.946Z,161.83
2019-01-10T05:45:17.827Z,153.10
2019-01-10T05:47:47.221Z,136.37
2019-01-10T05:50:18.008Z,113.43
2019-01-10T05:52:47.605Z,110.53
2019-01-10T05:55:18.635Z,108.00
2019-01-10T05:57:48.058Z,112.27
2019-01-10T06:00:25.029Z,112.27
2019-01-10T06:02:54.831Z,106.05
2019-01-10T06:05:25.092Z,112.63
2019-01-10T06:07:54.532Z,115.97
2019-01-10T06:10:26.538Z,114.93
2019-01-10T06:12:55.895Z,105.70
2019-01-10T06:15:25.250Z,109.53
2019-01-10T06:17:54.867Z,115.97
2019-01-10T06:20:24.783Z,112.87
2019-01-10T06:22:54.256Z,112.90
2019-01-10T06:25:23.565Z,109.50
2019-01-10T06:27:53.028Z,114.63
2019-01-10T06:30:23.195Z,114.17
2019-01-10T06:32:52.605Z,110.07
2019-01-10T06:35:22.103Z,107.37
2019-01-10T06:37:51.530Z,104.17
2019-01-10T06:40:21.319Z,100.30
2019-01-10T06:42:50.927Z,103.63
2019-01-10T06:45:20.284Z,101.87
2019-01-10T06:47:50.153Z,91.20
2019-01-10T06:50:19.459Z,101.53
2019-01-10T06:52:50.301Z,101.30
2019-01-10T06:55:19.662Z,97.80
2019-01-10T06:57:49.057Z,101.10
2019-01-10T07:00:20.997Z,95.17
2019-01-10T07:02:50.454Z,107.33
2019-01-10T07:05:19.938Z,100.73
2019-01-10T07:07:56.262Z,102.90
2019-01-10T07:10:22.966Z,103.10
2019-01-10T07:12:52.309Z,106.20
2019-01-10T07:15:21.697Z,104.10
2019-01-10T07:17:51.260Z,105.77
2019-01-10T07:20:20.661Z,100.93
2019-01-10T07:22:52.270Z,103.33
2019-01-10T07:25:21.681Z,101.80
2019-01-10T07:27:50.977Z,101.67
2019-01-10T07:30:23.093Z,103.57
2019-01-10T07:32:53.584Z,104.23
2019-01-10T07:35:22.896Z,108.00
2019-01-10T07:37:53.882Z,99.93
2019-01-10T07:40:23.178Z,100.23
2019-01-10T07:42:52.589Z,99.97
2019-01-10T07:45:23.494Z,104.87
2019-01-10T07:47:52.919Z,105.93
2019-01-10T07:50:27.729Z,106.63
2019-01-10T07:52:57.119Z,100.43
2019-01-10T07:55:26.538Z,105.47
2019-01-10T07:57:57.023Z,102.03
2019-01-10T08:00:26.538Z,104.63
2019-01-10T08:02:56.104Z,104.17
2019-01-10T08:05:25.549Z,98.73
2019-01-10T08:07:55.328Z,100.73
2019-01-10T08:10:24.830Z,105.23
2019-01-10T08:12:54.364Z,99.37
2019-01-10T08:15:23.900Z,105.40
2019-01-10T08:17:53.272Z,107.47
2019-01-10T08:20:23.771Z,104.77
2019-01-10T08:22:53.135Z,103.90
2019-01-10T08:25:22.534Z,105.00
2019-01-10T08:27:51.981Z,106.93
2019-01-10T08:30:22.543Z,108.30
2019-01-10T08:32:51.940Z,104.77
2019-01-10T08:35:22.599Z,114.73
2019-01-10T08:37:51.989Z,110.00
2019-01-10T08:40:21.432Z,117.20
2019-01-10T08:42:50.978Z,112.60
2019-01-10T08:45:21.743Z,121.63
2019-01-10T08:47:51.602Z,116.53
2019-01-10T08:50:23.096Z,111.50
2019-01-10T08:52:52.734Z,106.67
2019-01-10T08:55:22.047Z,108.47
2019-01-10T08:57:51.422Z,112.00
2019-01-10T09:00:21.541Z,110.23
2019-01-10T09:02:50.991Z,110.37
2019-01-10T09:05:20.440Z,106.13
2019-01-10T09:07:50.899Z,98.83
2019-01-10T09:10:22.488Z,105.13
2019-01-10T09:12:52.477Z,106.37
2019-01-10T09:15:25.400Z,103.13
2019-01-10T09:17:53.956Z,106.83
2019-01-10T09:20:23.373Z,108.87
2019-01-10T09:22:52.820Z,118.90
2019-01-10T09:25:22.311Z,116.63
2019-01-10T09:27:51.636Z,113.20
2019-01-10T09:30:21.485Z,116.27
2019-01-10T09:32:50.860Z,121.93
2019-01-10T09:35:20.467Z,109.83
2019-01-10T09:37:51.114Z,114.27
2019-01-10T09:40:21.869Z,114.13
2019-01-10T09:42:51.478Z,115.83
2019-01-10T09:45:22.466Z,115.30
2019-01-10T09:47:51.816Z,113.43
2019-01-10T09:50:22.475Z,109.77
2019-01-10T09:52:51.745Z,114.73
2019-01-10T09:55:21.211Z,117.93
2019-01-10T09:57:50.639Z,111.77
2019-01-10T10:00:25.284Z,123.80
2019-01-10T10:02:54.770Z,131.50
2019-01-10T10:05:23.921Z,123.93
2019-01-10T10:07:53.281Z,115.80
2019-01-10T10:10:22.484Z,116.53
2019-01-10T10:12:51.539Z,109.03
2019-01-10T10:15:21.275Z,110.30
2019-01-10T10:17:51.408Z,112.43
2019-01-10T10:20:21.543Z,106.13
2019-01-10T10:22:50.812Z,104.60
2019-01-10T10:25:20.048Z,102.63
2019-01-10T10:27:49.187Z,102.97
2019-01-10T10:30:19.063Z,100.07
2019-01-10T10:32:48.243Z,103.77
2019-01-10T10:35:17.697Z,97.33
2019-01-10T10:37:46.804Z,96.50
2019-01-10T10:40:16.849Z,86.33
2019-01-10T10:42:46.566Z,89.67
2019-01-10T10:45:17.557Z,91.77
2019-01-10T10:47:46.968Z,100.03
2019-01-10T10:50:19.411Z,98.00
2019-01-10T10:52:48.902Z,92.60
2019-01-10T10:55:18.159Z,99.47
2019-01-10T10:57:47.481Z,98.07
2019-01-10T11:00:20.298Z,111.30
2019-01-10T11:02:49.685Z,119.40
2019-01-10T11:05:19.086Z,117.03
2019-01-10T11:07:49.857Z,118.23
2019-01-10T11:10:20.344Z,120.60
2019-01-10T11:12:49.987Z,123.10
2019-01-10T11:15:19.502Z,115.90
2019-01-10T11:17:48.884Z,121.93
2019-01-10T11:20:20.181Z,118.70
2019-01-10T11:22:50.006Z,128.07
2019-01-10T11:25:21.779Z,134.93
2019-01-10T11:27:51.227Z,125.30
2019-01-10T11:30:20.917Z,131.90
2019-01-10T11:32:50.242Z,137.00
2019-01-10T11:35:19.707Z,138.67
2019-01-10T11:37:49.668Z,136.50
2019-01-10T11:40:20.779Z,138.00
2019-01-10T11:42:50.180Z,137.27
2019-01-10T11:45:21.483Z,136.33
2019-01-10T11:47:50.942Z,142.43
2019-01-10T11:50:20.235Z,135.50
2019-01-10T11:52:50.140Z,132.93
2019-01-10T11:55:19.641Z,122.70
2019-01-10T11:57:49.286Z,112.70
2019-01-10T12:00:27.357Z,118.00
2019-01-10T12:02:56.983Z,110.80
2019-01-10T12:05:26.353Z,133.37
2019-01-10T12:07:55.745Z,120.53
2019-01-10T12:10:25.376Z,122.43
2019-01-10T12:12:54.660Z,111.07
2019-01-10T12:15:24.253Z,114.60
2019-01-10T12:17:53.413Z,114.63
2019-01-10T12:20:22.554Z,122.63
2019-01-10T12:22:51.951Z,104.87
2019-01-10T12:25:21.501Z,99.27
2019-01-10T12:27:50.897Z,103.73
2019-01-10T12:30:22.258Z,106.37
2019-01-10T12:32:51.773Z,104.07
2019-01-10T12:35:21.250Z,96.03
2019-01-10T12:37:51.389Z,89.27
2019-01-10T12:40:20.507Z,97.83
2019-01-10T12:42:49.759Z,97.63
2019-01-10T12:45:20.469Z,95.47
2019-01-10T12:47:49.860Z,81.17
2019-01-10T12:50:24.037Z,78.37
2019-01-10T12:52:53.670Z,78.77
2019-01-10T12:55:23.098Z,83.23
2019-01-10T12:57:52.660Z,77.70
2019-01-10T13:00:24.586Z,81.37
2019-01-10T13:02:55.765Z,78.83
2019-01-10T13:05:25.176Z,82.77
2019-01-10T13:08:03.124Z,79.60
2019-01-10T13:10:25.804Z,85.87
2019-01-10T13:12:55.214Z,79.10
2019-01-10T13:15:25.849Z,81.40
2019-01-10T13:17:55.249Z,86.20
2019-01-10T13:20:24.843Z,82.10
2019-01-10T13:22:55.354Z,86.23
2019-01-10T13:25:24.874Z,93.67
2019-01-10T13:27:54.519Z,76.13
2019-01-10T13:30:25.561Z,82.53
2019-01-10T13:32:55.288Z,83.63
2019-01-10T13:35:24.909Z,87.70
2019-01-10T13:37:54.784Z,93.27
2019-01-10T13:40:24.317Z,82.53
2019-01-10T13:42:53.819Z,81.13
2019-01-10T13:45:23.223Z,86.87
2019-01-10T13:47:54.546Z,87.77
2019-01-10T13:50:26.161Z,83.97
2019-01-10T13:52:55.542Z,90.67
2019-01-10T13:55:25.096Z,83.27
2019-01-10T13:57:54.461Z,84.00
2019-01-10T14:00:28.544Z,87.87
2019-01-10T14:02:57.944Z,86.00
2019-01-10T14:05:27.475Z,86.67
2019-01-10T14:07:57.159Z,89.00
2019-01-10T14:10:26.637Z,90.43
2019-01-10T14:12:56.991Z,87.73
2019-01-10T14:15:28.247Z,93.53
2019-01-10T14:17:57.778Z,89.90
2019-01-10T14:20:27.392Z,90.00
2019-01-10T14:22:56.767Z,96.77
2019-01-10T14:25:26.478Z,92.47
2019-01-10T14:27:59.577Z,89.07
2019-01-10T14:30:29.762Z,95.20
2019-01-10T14:32:59.212Z,100.23
2019-01-10T14:35:28.998Z,96.80
2019-01-10T14:37:58.380Z,99.43
2019-01-10T14:40:27.831Z,108.57
2019-01-10T14:42:57.297Z,97.13
2019-01-10T14:45:26.686Z,101.80
2019-01-10T14:48:01.746Z,96.43
2019-01-10T14:50:27.679Z,95.23
2019-01-10T14:52:57.316Z,96.47
2019-01-10T14:55:26.793Z,101.63
2019-01-10T14:57:56.334Z,100.93
2019-01-10T15:00:26.028Z,104.37
2019-01-10T15:02:55.642Z,109.53
2019-01-10T15:05:24.967Z,105.70
2019-01-10T15:07:54.422Z,110.13
2019-01-10T15:10:24.004Z,105.83
2019-01-10T15:12:53.763Z,108.33
2019-01-10T15:15:23.688Z,117.23
2019-01-10T15:17:53.106Z,115.37
2019-01-10T15:20:27.444Z,106.97
2019-01-10T15:22:56.931Z,118.57
2019-01-10T15:25:26.343Z,116.30
2019-01-10T15:27:56.812Z,114.83
2019-01-10T15:30:26.768Z,116.17
2019-01-10T15:32:56.501Z,113.70
2019-01-10T15:35:25.863Z,108.17
2019-01-10T15:37:55.451Z,117.93
2019-01-10T15:40:27.048Z,122.63
2019-01-10T15:42:56.497Z,121.40
2019-01-10T15:45:25.829Z,117.13
2019-01-10T15:47:55.277Z,115.43
2019-01-10T15:50:24.651Z,112.20
2019-01-10T15:52:54.303Z,110.43
2019-01-10T15:55:23.892Z,112.90
2019-01-10T15:57:53.324Z,122.47
2019-01-10T16:00:24.161Z,117.20
2019-01-10T16:02:53.675Z,115.80
2019-01-10T16:05:23.008Z,111.33
2019-01-10T16:07:52.554Z,112.57
2019-01-10T16:10:21.917Z,107.33
2019-01-10T16:12:51.501Z,112.73
2019-01-10T16:15:22.620Z,117.43
2019-01-10T16:17:53.244Z,114.47
2019-01-10T16:20:22.581Z,114.83
2019-01-10T16:22:51.997Z,114.10
2019-01-10T16:25:21.329Z,111.50
2019-01-10T16:27:50.673Z,105.93
2019-01-10T16:30:23.014Z,100.33
2019-01-10T16:32:52.512Z,93.00
2019-01-10T16:35:21.890Z,92.30
2019-01-10T16:37:51.247Z,90.73
2019-01-10T16:40:20.544Z,86.53
2019-01-10T16:42:49.847Z,94.17
2019-01-10T16:45:21.597Z,91.57
2019-01-10T16:47:51.021Z,96.43
2019-01-10T16:50:20.390Z,93.93
2019-01-10T16:52:49.795Z,84.67
2019-01-10T16:55:19.090Z,82.40
2019-01-10T16:57:48.401Z,86.27
2019-01-10T17:00:23.597Z,88.60
2019-01-10T17:02:52.902Z,90.93
2019-01-10T17:05:22.294Z,91.03
2019-01-10T17:07:51.688Z,91.10
2019-01-10T17:10:21.095Z,93.30
2019-01-10T17:12:50.476Z,97.37
2019-01-10T17:15:21.514Z,91.03
2019-01-10T17:17:51.040Z,94.00
2019-01-10T17:20:25.299Z,84.83
2019-01-10T17:22:54.749Z,89.70
2019-01-10T17:25:24.207Z,84.93
2019-01-10T17:27:53.688Z,79.10
2019-01-10T17:30:25.036Z,88.07
2019-01-10T17:32:54.487Z,83.23
2019-01-10T17:35:28.743Z,88.43
2019-01-10T17:37:58.257Z,83.50
2019-01-10T17:40:27.595Z,84.43
2019-01-10T17:42:57.391Z,91.20
2019-01-10T17:45:29.402Z,88.87
2019-01-10T17:47:58.779Z,90.93
2019-01-10T17:50:28.228Z,93.17
2019-01-10T17:52:57.545Z,92.20
2019-01-10T17:55:27.074Z,102.77
2019-01-10T17:57:56.607Z,100.87
2019-01-10T18:00:28.240Z,106.43
2019-01-10T18:02:58.014Z,102.50
2019-01-10T18:05:27.636Z,102.60
2019-01-10T18:07:57.611Z,103.70
2019-01-10T18:10:27.167Z,100.27
2019-01-10T18:12:57.833Z,97.97
2019-01-10T18:15:27.479Z,100.63
2019-01-10T18:17:57.094Z,98.47
2019-01-10T18:20:30.000Z,112.93
2019-01-10T18:22:59.696Z,108.60
2019-01-10T18:25:29.437Z,109.70
2019-01-10T18:27:58.998Z,110.23
2019-01-10T18:30:29.485Z,110.37
2019-01-10T18:32:59.447Z,114.07
2019-01-10T18:35:28.995Z,118.87
2019-01-10T18:37:58.442Z,119.83
2019-01-10T18:40:28.154Z,119.33
2019-01-10T18:42:57.482Z,120.40
2019-01-10T18:45:29.314Z,121.37
2019-01-10T18:47:58.688Z,131.50
2019-01-10T18:50:28.149Z,129.43
2019-01-10T18:52:57.565Z,133.43
2019-01-10T18:55:27.125Z,129.73
2019-01-10T18:57:56.458Z,125.70
2019-01-10T19:00:28.437Z,132.00
2019-01-10T19:02:58.475Z,125.57
2019-01-10T19:05:28.135Z,127.23
2019-01-10T19:07:57.989Z,131.83
2019-01-10T19:10:27.919Z,126.20
2019-01-10T19:12:57.783Z,124.50
2019-01-10T19:15:27.258Z,128.00
2019-01-10T19:17:56.587Z,125.53
2019-01-10T19:20:27.416Z,122.63
2019-01-10T19:22:57.745Z,116.20
2019-01-10T19:25:27.628Z,117.93
2019-01-10T19:27:57.160Z,116.73
2019-01-10T19:30:29.035Z,119.63
2019-01-10T19:32:58.519Z,119.37
2019-01-10T19:35:28.040Z,114.63
2019-01-10T19:37:57.540Z,115.20
2019-01-10T19:40:27.047Z,115.07
2019-01-10T19:42:56.355Z,118.50
2019-01-10T19:45:26.217Z,118.50
2019-01-10T19:47:56.076Z,113.87
2019-01-10T19:50:26.460Z,124.97
2019-01-10T19:52:56.019Z,120.60
2019-01-10T19:55:25.616Z,120.57
2019-01-10T19:57:55.286Z,120.33
2019-01-10T20:00:30.445Z,123.47
2019-01-10T20:03:00.082Z,118.60
2019-01-10T20:05:29.815Z,125.47
2019-01-10T20:08:00.530Z,128.80
2019-01-10T20:10:30.315Z,124.40
2019-01-10T20:12:59.965Z,127.03
2019-01-10T20:15:30.571Z,120.23
2019-01-10T20:18:00.295Z,122.20
2019-01-10T20:20:35.865Z,134.20
2019-01-10T20:23:07.263Z,126.13
2019-01-10T20:25:37.757Z,128.43
2019-01-10T20:28:07.141Z,122.13
2019-01-10T20:30:36.862Z,129.33
2019-01-10T20:33:06.774Z,120.93
2019-01-10T20:35:36.345Z,127.63
2019-01-10T20:38:05.704Z,122.77
2019-01-10T20:40:35.207Z,127.20
2019-01-10T20:43:06.432Z,121.97
2019-01-10T20:45:35.866Z,124.43
2019-01-10T20:48:05.584Z,124.30
2019-01-10T20:50:35.294Z,118.07
2019-01-10T20:53:05.203Z,127.47
2019-01-10T20:55:34.647Z,119.23
2019-01-10T20:58:04.208Z,126.73
2019-01-10T21:00:33.641Z,129.37
2019-01-10T21:03:03.080Z,124.40
2019-01-10T21:05:32.636Z,127.67
2019-01-10T21:08:02.181Z,121.83
2019-01-10T21:10:31.751Z,117.60
2019-01-10T21:13:01.316Z,124.90
2019-01-10T21:15:30.700Z,118.63
2019-01-10T21:18:00.332Z,126.10
2019-01-10T21:20:29.868Z,123.17
2019-01-10T21:22:59.658Z,125.83
2019-01-10T21:25:29.975Z,125.47
2019-01-10T21:28:00.825Z,130.63
2019-01-10T21:30:30.254Z,130.50
2019-01-10T21:32:59.632Z,131.27
2019-01-10T21:35:30.215Z,131.60
2019-01-10T21:38:00.087Z,131.57
2019-01-10T21:40:31.456Z,134.63
2019-01-10T21:43:02.104Z,127.57
2019-01-10T21:45:32.408Z,127.83
2019-01-10T21:48:02.543Z,133.67
2019-01-10T21:50:31.916Z,132.77
2019-01-10T21:53:01.443Z,136.70
2019-01-10T21:55:30.902Z,137.60
2019-01-10T21:58:00.498Z,135.63
2019-01-10T22:00:31.621Z,133.80
2019-01-10T22:03:01.746Z,142.00
2019-01-10T22:05:31.329Z,139.20
2019-01-10T22:08:01.971Z,129.63
2019-01-10T22:10:32.291Z,134.67
2019-01-10T22:13:01.860Z,132.17
2019-01-10T22:15:31.290Z,135.40
2019-01-10T22:18:00.841Z,138.10
2019-01-10T22:20:30.401Z,135.23
2019-01-10T22:22:59.831Z,143.30
2019-01-10T22:25:29.317Z,133.17
2019-01-10T22:27:58.915Z,143.77
2019-01-10T22:30:28.597Z,130.50
2019-01-10T22:32:58.258Z,134.47
2019-01-10T22:35:28.232Z,143.50
2019-01-10T22:37:57.907Z,135.53
2019-01-10T22:40:27.439Z,135.00
2019-01-10T22:42:57.139Z,138.23
2019-01-10T22:45:27.798Z,140.83
2019-01-10T22:47:57.440Z,140.23
2019-01-10T22:50:26.827Z,140.10
2019-01-10T22:52:56.359Z,143.37
2019-01-10T22:55:25.855Z,144.83
2019-01-10T22:57:55.340Z,133.13
2019-01-10T23:00:41.887Z,140.93
2019-01-10T23:03:11.290Z,141.37
2019-01-10T23:05:45.034Z,143.43
2019-01-10T23:08:14.314Z,139.67
2019-01-10T23:10:43.634Z,145.33
2019-01-10T23:13:13.547Z,140.23
2019-01-10T23:15:44.185Z,145.07
2019-01-10T23:18:13.833Z,143.57
2019-01-10T23:20:43.371Z,155.87
2019-01-10T23:23:13.393Z,142.10
2019-01-10T23:25:42.956Z,140.87
2019-01-10T23:28:12.751Z,154.57
2019-01-10T23:30:52.744Z,153.00
2019-01-10T23:33:22.460Z,153.10
2019-01-10T23:35:57.238Z,155.80
2019-01-10T23:38:26.714Z,156.80
2019-01-10T23:40:56.288Z,165.53
2019-01-10T23:43:25.777Z,163.87
2019-01-10T23:45:55.072Z,169.57
2019-01-10T23:48:24.550Z,162.13
2019-01-10T23:50:53.901Z,159.23
2019-01-10T23:53:23.323Z,161.03
2019-01-10T23:55:52.788Z,162.23
2019-01-10T23:58:22.847Z,157.73
